Time;durP1;ratioP1;P1;durP2;ratioP2;P2;SDS_P1;SDS_P2;PMS_P1;PMS_P2;Temp;Humidity;BMP_temperature;BMP_pressure;BME280_temperature;BME280_humidity;BME280_pressure;Samples;Min_cycle;Max_cycle;Signal;HPM_P1;HPM_P2
2020/12/30 00:00:06;;;;;;;0.00;0.00;;;2.60;99.90;;;;;;5091972;28;20085;-90
2020/12/30 00:02:38;;;;;;;0.00;0.00;;;2.50;99.90;;;;;;5102806;28;20028;-91
2020/12/30 00:05:08;;;;;;;0.00;0.00;;;2.50;99.90;;;;;;5090136;28;20039;-89
2020/12/30 00:07:36;;;;;;;0.20;0.20;;;2.40;99.90;;;;;;5087285;28;20130;-88
2020/12/30 00:10:04;;;;;;;0.40;0.40;;;2.30;99.90;;;;;;5093772;28;20039;-88
2020/12/30 00:12:32;;;;;;;0.90;0.90;;;2.20;99.90;;;;;;5091715;28;20040;-88
2020/12/30 00:14:58;;;;;;;0.00;0.00;;;2.10;99.90;;;;;;5085875;28;20035;-89
2020/12/30 00:17:24;;;;;;;0.00;0.00;;;2.00;99.90;;;;;;5082383;28;20431;-88
2020/12/30 00:19:50;;;;;;;0.00;0.00;;;2.00;99.90;;;;;;5091897;28;20066;-91
2020/12/30 00:22:19;;;;;;;0.00;0.00;;;1.90;99.90;;;;;;5076186;28;20036;-91
2020/12/30 00:24:45;;;;;;;0.00;0.00;;;1.80;99.90;;;;;;5093499;28;20043;-92
2020/12/30 00:27:11;;;;;;;0.00;0.00;;;1.80;99.90;;;;;;5080379;28;20036;-92
2020/12/30 00:29:40;;;;;;;0.00;0.00;;;1.70;99.90;;;;;;5090436;28;20050;-90
2020/12/30 00:32:10;;;;;;;0.00;0.00;;;1.70;99.90;;;;;;5089041;28;20052;-90
2020/12/30 00:34:37;;;;;;;0.00;0.00;;;1.60;99.90;;;;;;5085000;28;20118;-91
2020/12/30 00:37:03;;;;;;;0.00;0.00;;;1.60;99.90;;;;;;5088514;28;20032;-89
2020/12/30 00:39:29;;;;;;;1.52;1.52;;;1.60;99.90;;;;;;5083983;28;20054;-89
2020/12/30 00:41:56;;;;;;;0.77;0.77;;;1.50;99.90;;;;;;5090381;28;20036;-88
2020/12/30 00:44:22;;;;;;;0.35;0.35;;;1.40;99.90;;;;;;5090790;28;20027;-93
2020/12/30 00:46:55;;;;;;;6.65;4.18;;;1.40;99.90;;;;;;5095458;28;20044;-91
2020/12/30 00:49:22;;;;;;;1.38;1.38;;;1.40;99.90;;;;;;5098532;28;20074;-88
2020/12/30 00:51:56;;;;;;;0.47;0.47;;;1.40;99.90;;;;;;5091251;28;20028;-91
2020/12/30 00:54:25;;;;;;;1.33;1.33;;;1.30;99.90;;;;;;5101487;27;20032;-90
2020/12/30 00:56:52;;;;;;;2.47;0.80;;;1.30;99.90;;;;;;5103953;28;20040;-89
2020/12/30 00:59:19;;;;;;;0.00;0.00;;;1.30;99.90;;;;;;5089364;28;20051;-90
2020/12/30 01:01:52;;;;;;;0.22;0.15;;;1.20;99.90;;;;;;5092937;28;20031;-92
2020/12/30 01:04:29;;;;;;;0.47;0.32;;;1.20;99.90;;;;;;5088651;28;20055;-89
2020/12/30 01:06:55;;;;;;;0.40;0.40;;;1.20;99.90;;;;;;5087998;28;20033;-90
2020/12/30 01:09:25;;;;;;;0.00;0.00;;;1.20;99.90;;;;;;5083244;28;20074;-88
2020/12/30 01:11:51;;;;;;;6.63;5.72;;;1.10;99.90;;;;;;5084986;28;20082;-88
2020/12/30 01:14:17;;;;;;;0.82;0.80;;;1.10;99.90;;;;;;5083359;28;20032;-91
2020/12/30 01:16:53;;;;;;;0.08;0.00;;;1.10;99.90;;;;;;5084506;28;20039;-90
2020/12/30 01:19:19;;;;;;;0.73;0.73;;;1.10;99.90;;;;;;5099629;28;20047;-89
2020/12/30 01:21:45;;;;;;;0.35;0.35;;;1.10;99.90;;;;;;5089517;28;20051;-89
2020/12/30 01:24:10;;;;;;;0.35;0.35;;;1.10;99.90;;;;;;5100950;28;20054;-89
2020/12/30 01:26:40;;;;;;;0.00;0.00;;;1.00;99.90;;;;;;5089899;28;20036;-91
2020/12/30 01:29:06;;;;;;;14.38;11.68;;;1.00;99.90;;;;;;5081144;28;20043;-88
2020/12/30 01:31:33;;;;;;;0.00;0.00;;;0.90;99.90;;;;;;5083643;28;20054;-89
2020/12/30 01:33:59;;;;;;;0.20;0.00;;;1.00;99.90;;;;;;5094026;28;20046;-90
2020/12/30 01:36:25;;;;;;;1.20;1.13;;;1.00;99.90;;;;;;5092433;28;20043;-88
2020/12/30 01:38:52;;;;;;;0.00;0.00;;;0.90;99.90;;;;;;5084306;28;20044;-88
2020/12/30 01:41:18;;;;;;;0.00;0.00;;;0.90;99.90;;;;;;5086901;27;20028;-90
2020/12/30 01:44:00;;;;;;;0.85;0.85;;;0.90;99.90;;;;;;5096769;27;20038;-88
2020/12/30 01:46:41;;;;;;;0.10;0.10;;;0.80;99.90;;;;;;5081869;28;20032;-88
2020/12/30 01:49:12;;;;;;;4.60;4.38;;;0.80;99.90;;;;;;5088774;28;20043;-90
2020/12/30 01:51:40;;;;;;;0.00;0.00;;;0.80;99.90;;;;;;5089785;28;20130;-91
2020/12/30 01:54:09;;;;;;;0.00;0.00;;;0.80;99.90;;;;;;5080685;28;20043;-92
2020/12/30 01:56:35;;;;;;;0.73;0.73;;;0.80;99.90;;;;;;5094830;23;20093;-94
2020/12/30 01:59:06;;;;;;;0.00;0.00;;;0.80;99.90;;;;;;5100430;28;20043;-91
2020/12/30 02:01:34;;;;;;;0.00;0.00;;;0.80;99.90;;;;;;5087578;28;20050;-90
2020/12/30 02:04:05;;;;;;;0.00;0.00;;;0.90;99.90;;;;;;5091501;28;20102;-91
2020/12/30 02:06:32;;;;;;;1.00;1.00;;;0.80;99.90;;;;;;5082701;28;20040;-88
2020/12/30 02:08:58;;;;;;;1.20;1.20;;;0.90;99.90;;;;;;5090956;28;20044;-89
2020/12/30 02:11:26;;;;;;;0.75;0.75;;;0.90;99.90;;;;;;5100713;28;20180;-89
2020/12/30 02:14:11;;;;;;;0.00;0.00;;;0.90;99.90;;;;;;5083654;28;20035;-88
2020/12/30 02:16:51;;;;;;;0.00;0.00;;;1.00;99.90;;;;;;5098234;28;20051;-88
2020/12/30 02:19:17;;;;;;;0.10;0.10;;;1.00;99.90;;;;;;5083605;28;20042;-90
2020/12/30 02:21:43;;;;;;;1.45;0.35;;;1.00;99.90;;;;;;5094566;28;20036;-87
2020/12/30 02:24:23;;;;;;;0.00;0.00;;;1.10;99.90;;;;;;5082793;28;20028;-88
2020/12/30 02:26:48;;;;;;;2.22;0.77;;;1.10;99.90;;;;;;5102859;28;20058;-89
2020/12/30 02:29:14;;;;;;;1.80;1.70;;;1.10;99.90;;;;;;5081125;28;20047;-87
2020/12/30 02:31:39;;;;;;;6.05;5.70;;;1.20;99.90;;;;;;5090773;28;20028;-89
2020/12/30 02:34:05;;;;;;;0.73;0.73;;;1.20;99.90;;;;;;5084516;28;20040;-94
2020/12/30 02:36:30;;;;;;;0.55;0.52;;;1.20;99.90;;;;;;5081548;28;20450;-90
2020/12/30 02:38:56;;;;;;;1.10;1.00;;;1.20;99.90;;;;;;5084237;28;20043;-90
2020/12/30 02:41:22;;;;;;;3.92;3.72;;;1.30;99.90;;;;;;5091714;28;20088;-88
2020/12/30 02:43:48;;;;;;;0.00;0.00;;;1.30;99.90;;;;;;5091290;28;20036;-87
2020/12/30 02:46:13;;;;;;;0.00;0.00;;;1.30;99.90;;;;;;5089094;28;20043;-91
2020/12/30 02:48:40;;;;;;;1.75;1.65;;;1.30;99.90;;;;;;5095054;28;20058;-91
2020/12/30 02:51:06;;;;;;;0.00;0.00;;;1.30;99.90;;;;;;5083796;28;20044;-88
2020/12/30 02:53:33;;;;;;;0.00;0.00;;;1.30;99.90;;;;;;5084880;28;20040;-87
2020/12/30 02:55:58;;;;;;;0.00;0.00;;;1.30;99.90;;;;;;5088456;28;20055;-89
2020/12/30 02:58:24;;;;;;;0.00;0.00;;;1.40;99.90;;;;;;5085568;28;20055;-92
2020/12/30 03:00:49;;;;;;;0.00;0.00;;;1.40;99.90;;;;;;5090591;28;20523;-89
2020/12/30 03:03:15;;;;;;;0.00;0.00;;;1.40;99.90;;;;;;5090391;28;20035;-91
2020/12/30 03:05:40;;;;;;;5.32;4.97;;;1.40;99.90;;;;;;5083746;28;20043;-90
2020/12/30 03:08:06;;;;;;;0.00;0.00;;;1.30;99.90;;;;;;5089378;28;20073;-90
2020/12/30 03:10:32;;;;;;;0.00;0.00;;;1.40;99.90;;;;;;5081732;28;20032;-91
2020/12/30 03:12:57;;;;;;;0.00;0.00;;;1.30;99.90;;;;;;5099671;28;20050;-90
2020/12/30 03:15:23;;;;;;;0.00;0.00;;;1.30;99.90;;;;;;5099351;28;20251;-92
2020/12/30 03:17:48;;;;;;;0.00;0.00;;;1.40;99.90;;;;;;5099720;28;20036;-89
2020/12/30 03:20:14;;;;;;;0.00;0.00;;;1.40;99.90;;;;;;5082354;28;20028;-91
2020/12/30 03:22:40;;;;;;;0.00;0.00;;;1.50;99.90;;;;;;5099746;28;20040;-90
2020/12/30 03:25:05;;;;;;;1.75;1.65;;;1.50;99.90;;;;;;5095516;28;20028;-92
2020/12/30 03:27:31;;;;;;;0.00;0.00;;;1.60;99.90;;;;;;5093209;28;20398;-88
2020/12/30 03:29:56;;;;;;;2.47;2.38;;;1.60;99.90;;;;;;5091340;28;20039;-90
2020/12/30 03:32:22;;;;;;;0.00;0.00;;;1.60;99.90;;;;;;5094946;28;20109;-88
2020/12/30 03:34:48;;;;;;;0.30;0.22;;;1.60;99.90;;;;;;5094451;28;20031;-89
2020/12/30 03:37:13;;;;;;;0.00;0.00;;;1.60;99.90;;;;;;5083748;28;20423;-89
2020/12/30 03:39:39;;;;;;;0.03;0.03;;;1.70;99.90;;;;;;5092322;28;20529;-89
2020/12/30 03:42:06;;;;;;;0.00;0.00;;;1.70;99.90;;;;;;5095620;28;20031;-89
2020/12/30 03:44:37;;;;;;;0.00;0.00;;;1.80;99.90;;;;;;5093190;28;20047;-88
2020/12/30 03:47:06;;;;;;;0.00;0.00;;;1.80;99.90;;;;;;5101598;28;20151;-89
2020/12/30 03:49:33;;;;;;;0.00;0.00;;;1.80;99.90;;;;;;5095087;28;20109;-91
2020/12/30 03:51:59;;;;;;;1.13;1.13;;;1.80;99.90;;;;;;5091570;27;20057;-89
2020/12/30 03:54:32;;;;;;;0.00;0.00;;;1.90;99.90;;;;;;5111203;27;20046;-91
2020/12/30 03:56:58;;;;;;;0.00;0.00;;;2.00;99.90;;;;;;5085973;28;20044;-92
2020/12/30 03:59:23;;;;;;;0.00;0.00;;;1.90;99.90;;;;;;5102902;28;20039;-92
2020/12/30 04:01:49;;;;;;;0.00;0.00;;;1.90;99.90;;;;;;5120344;28;20125;-92
2020/12/30 04:04:15;;;;;;;0.00;0.00;;;2.00;99.90;;;;;;5091917;28;20126;-89
2020/12/30 04:06:41;;;;;;;22.58;2.13;;;2.00;99.90;;;;;;5105018;28;20036;-91
2020/12/30 04:09:10;;;;;;;12.90;11.88;;;2.00;99.90;;;;;;5108006;28;20048;-88
2020/12/30 04:11:36;;;;;;;0.30;0.30;;;2.10;99.90;;;;;;5119549;28;20028;-89
2020/12/30 04:14:02;;;;;;;0.00;0.00;;;2.00;99.90;;;;;;5083940;28;20051;-90
2020/12/30 04:16:27;;;;;;;0.00;0.00;;;2.00;99.90;;;;;;5092171;28;20027;-89
2020/12/30 04:18:53;;;;;;;0.00;0.00;;;1.90;99.90;;;;;;5104609;28;20042;-88
2020/12/30 04:21:23;;;;;;;0.00;0.00;;;2.00;99.90;;;;;;5093757;28;20042;-88
2020/12/30 04:23:50;;;;;;;0.00;0.00;;;2.00;99.90;;;;;;5090829;28;20040;-89
2020/12/30 04:26:16;;;;;;;0.00;0.00;;;2.00;99.90;;;;;;5085484;28;20065;-89
2020/12/30 04:28:42;;;;;;;0.00;0.00;;;2.10;99.90;;;;;;5087112;28;20074;-87
2020/12/30 04:31:15;;;;;;;0.00;0.00;;;2.10;99.90;;;;;;5099352;28;20036;-93
2020/12/30 04:33:41;;;;;;;0.00;0.00;;;2.00;99.90;;;;;;5088873;28;20031;-89
2020/12/30 04:36:08;;;;;;;0.00;0.00;;;2.00;99.90;;;;;;5092111;28;20062;-91
2020/12/30 04:38:34;;;;;;;0.15;0.15;;;2.00;99.90;;;;;;5082918;28;20023;-89
2020/12/30 04:41:01;;;;;;;0.00;0.00;;;2.00;99.90;;;;;;5104506;28;20032;-92
2020/12/30 04:43:28;;;;;;;0.00;0.00;;;2.00;99.90;;;;;;5101805;28;20055;-88
2020/12/30 04:45:55;;;;;;;0.00;0.00;;;2.00;99.90;;;;;;5100833;28;20035;-85
2020/12/30 04:48:24;;;;;;;0.00;0.00;;;2.00;99.90;;;;;;5086126;28;20046;-90
2020/12/30 04:50:51;;;;;;;0.70;0.70;;;2.10;99.90;;;;;;5099380;28;20411;-89
2020/12/30 04:53:21;;;;;;;15.02;5.38;;;2.10;99.90;;;;;;5084568;28;20044;-90
2020/12/30 04:55:48;;;;;;;;;;;2.20;99.90;;;;;;5119704;28;20047;-90
2020/12/30 04:58:16;;;;;;;0.30;0.30;;;2.20;99.90;;;;;;5100219;28;19908;-88
2020/12/30 05:00:42;;;;;;;2.17;2.08;;;2.20;99.90;;;;;;5090583;28;20050;-90
2020/12/30 05:03:12;;;;;;;0.00;0.00;;;2.20;99.90;;;;;;5100777;28;20039;-91
2020/12/30 05:05:39;;;;;;;0.00;0.00;;;2.10;99.90;;;;;;5090505;28;20074;-91
2020/12/30 05:08:25;;;;;;;0.00;0.00;;;2.20;99.90;;;;;;5099820;28;20125;-90
2020/12/30 05:10:52;;;;;;;0.00;0.00;;;2.20;99.90;;;;;;5091924;28;20035;-90
2020/12/30 05:13:19;;;;;;;0.00;0.00;;;2.20;99.90;;;;;;5092097;28;20028;-91
2020/12/30 05:15:45;;;;;;;0.00;0.00;;;2.20;99.90;;;;;;5089970;28;20502;-92
2020/12/30 05:18:11;;;;;;;0.00;0.00;;;2.10;99.90;;;;;;5091989;28;20065;-90
2020/12/30 05:20:37;;;;;;;0.00;0.00;;;2.00;99.90;;;;;;5088629;28;20036;-92
2020/12/30 05:23:07;;;;;;;0.05;0.05;;;2.10;99.90;;;;;;5091222;28;20031;-90
2020/12/30 05:25:38;;;;;;;0.00;0.00;;;2.10;99.90;;;;;;5085669;28;20078;-89
2020/12/30 05:28:13;;;;;;;0.00;0.00;;;2.10;99.90;;;;;;5082391;28;20063;-90
2020/12/30 05:30:43;;;;;;;3.83;0.80;;;2.20;99.90;;;;;;5081523;28;20043;-88
2020/12/30 05:33:10;;;;;;;0.10;0.10;;;2.20;99.90;;;;;;5087499;28;20040;-89
2020/12/30 05:35:36;;;;;;;0.00;0.00;;;2.30;99.90;;;;;;5090490;28;20267;-87
2020/12/30 05:38:03;;;;;;;0.00;0.00;;;2.20;99.90;;;;;;5092514;28;20523;-91
2020/12/30 05:40:31;;;;;;;0.00;0.00;;;2.10;99.90;;;;;;5084110;28;20028;-88
2020/12/30 05:43:11;;;;;;;0.00;0.00;;;2.20;99.90;;;;;;5089238;28;20047;-88
2020/12/30 05:45:44;;;;;;;0.00;0.00;;;2.20;99.90;;;;;;5094561;28;20043;-91
2020/12/30 05:48:13;;;;;;;0.00;0.00;;;2.20;99.90;;;;;;5092124;28;20066;-90
2020/12/30 05:50:58;;;;;;;0.00;0.00;;;2.20;99.90;;;;;;5083859;28;20047;-89
2020/12/30 05:53:24;;;;;;;0.00;0.00;;;2.30;99.90;;;;;;5090118;28;20032;-88
2020/12/30 05:55:54;;;;;;;0.00;0.00;;;2.30;99.90;;;;;;5096312;28;20086;-89
2020/12/30 05:58:19;;;;;;;0.63;0.63;;;2.30;99.90;;;;;;5084452;28;20112;-89
2020/12/30 06:00:46;;;;;;;0.00;0.00;;;2.20;99.90;;;;;;5097297;28;20027;-89
2020/12/30 06:03:26;;;;;;;0.77;0.77;;;2.30;99.90;;;;;;5096312;28;20047;-89
2020/12/30 06:05:53;;;;;;;0.00;0.00;;;2.30;99.90;;;;;;5081954;28;20031;-90
2020/12/30 06:08:21;;;;;;;0.00;0.00;;;2.30;99.90;;;;;;5091712;28;20115;-89
2020/12/30 06:10:48;;;;;;;1.02;0.70;;;2.30;99.90;;;;;;5088941;28;20032;-88
2020/12/30 06:13:20;;;;;;;0.00;0.00;;;2.30;99.90;;;;;;5122898;28;20099;-90
2020/12/30 06:15:50;;;;;;;0.00;0.00;;;2.40;99.90;;;;;;5098312;28;20213;-88
2020/12/30 06:18:20;;;;;;;;;;;2.40;99.90;;;;;;5097676;28;20038;-90
2020/12/30 06:20:51;;;;;;;0.00;0.00;;;2.40;99.90;;;;;;5099071;28;19912;-89
2020/12/30 06:23:17;;;;;;;0.00;0.00;;;2.40;99.90;;;;;;5099948;28;20342;-87
2020/12/30 06:25:45;;;;;;;0.00;0.00;;;2.40;99.90;;;;;;5106802;28;20031;-86
2020/12/30 06:28:13;;;;;;;0.00;0.00;;;2.30;99.90;;;;;;5090695;28;20051;-86
2020/12/30 06:30:41;;;;;;;0.00;0.00;;;2.30;99.90;;;;;;5073002;28;20040;-86
2020/12/30 06:33:08;;;;;;;0.88;0.88;;;2.20;99.90;;;;;;5071839;28;20564;-85
2020/12/30 06:35:38;;;;;;;0.25;0.25;;;2.20;99.90;;;;;;5071895;28;20499;-86
2020/12/30 06:38:24;;;;;;;;;;;2.10;99.90;;;;;;5072297;28;20036;-86
2020/12/30 06:40:56;;;;;;;0.00;0.00;;;2.00;99.90;;;;;;5087969;28;19908;-87
2020/12/30 06:43:42;;;;;;;0.00;0.00;;;1.90;99.90;;;;;;5071813;28;20086;-86
2020/12/30 06:46:11;;;;;;;0.43;0.43;;;1.80;99.90;;;;;;5071699;28;20294;-85
2020/12/30 06:49:03;;;;;;;0.20;0.20;;;1.70;99.90;;;;;;5071523;28;20047;-86
2020/12/30 06:51:35;;;;;;;0.00;0.00;;;1.70;99.90;;;;;;5071804;28;20052;-86
2020/12/30 06:59:55;;;;;;;0.00;0.00;;;1.60;99.90;;;;;;5027343;22;20059;-82
2020/12/30 07:02:21;;;;;;;0.55;0.52;;;1.70;99.90;;;;;;5086441;22;20108;-86
2020/12/30 07:04:59;;;;;;;0.10;0.10;;;1.70;99.90;;;;;;5031611;28;20045;-86
2020/12/30 07:07:24;;;;;;;0.00;0.00;;;1.80;99.90;;;;;;5027660;28;20045;-86
2020/12/30 07:10:23;;;;;;;0.00;0.00;;;1.70;99.90;;;;;;5044801;28;20053;-86
2020/12/30 07:12:49;;;;;;;0.00;0.00;;;1.70;99.90;;;;;;5028604;28;20034;-86
2020/12/30 07:15:14;;;;;;;0.00;0.00;;;1.70;99.90;;;;;;5028351;28;20377;-85
2020/12/30 07:17:43;;;;;;;0.00;0.00;;;1.80;99.90;;;;;;5011893;28;20038;-85
2020/12/30 07:20:22;;;;;;;0.00;0.00;;;1.80;99.90;;;;;;5011731;28;20052;-87
2020/12/30 07:22:48;;;;;;;0.00;0.00;;;1.80;99.90;;;;;;5047847;28;20033;-87
2020/12/30 07:25:17;;;;;;;0.95;0.68;;;1.70;99.90;;;;;;5028719;28;20037;-86
2020/12/30 07:27:43;;;;;;;0.00;0.00;;;1.70;99.90;;;;;;5049484;28;20033;-85
2020/12/30 07:30:09;;;;;;;0.00;0.00;;;1.70;99.90;;;;;;5030690;28;20045;-86
2020/12/30 07:32:35;;;;;;;0.00;0.00;;;1.70;99.90;;;;;;5031834;28;20044;-86
2020/12/30 07:35:06;;;;;;;0.00;0.00;;;1.70;99.90;;;;;;5031559;28;20033;-86
2020/12/30 07:37:32;;;;;;;0.00;0.00;;;1.70;99.90;;;;;;5031760;28;20040;-86
2020/12/30 07:39:58;;;;;;;0.00;0.00;;;1.80;99.90;;;;;;5048218;28;20044;-87
2020/12/30 07:42:24;;;;;;;0.00;0.00;;;1.80;99.90;;;;;;5031677;28;20032;-85
2020/12/30 07:44:57;;;;;;;0.00;0.00;;;1.70;99.90;;;;;;5013891;28;20068;-87
2020/12/30 07:47:25;;;;;;;0.00;0.00;;;1.70;99.90;;;;;;5037477;28;20097;-85
2020/12/30 07:49:57;;;;;;;0.00;0.00;;;1.80;99.90;;;;;;5028109;28;20042;-85
2020/12/30 07:52:23;;;;;;;0.00;0.00;;;1.90;99.90;;;;;;5046393;28;20041;-86
2020/12/30 07:54:48;;;;;;;0.00;0.00;;;1.90;99.90;;;;;;5042359;28;20047;-86
2020/12/30 07:57:14;;;;;;;0.00;0.00;;;1.90;99.90;;;;;;5071085;28;20041;-85
2020/12/30 07:59:41;;;;;;;0.00;0.00;;;1.80;99.90;;;;;;5050405;28;20041;-87
2020/12/30 08:02:17;;;;;;;0.00;0.00;;;1.80;99.90;;;;;;5044271;28;20033;-87
2020/12/30 08:04:45;;;;;;;0.00;0.00;;;1.70;99.90;;;;;;5055376;28;20041;-87
2020/12/30 08:07:12;;;;;;;1.30;1.30;;;1.90;99.90;;;;;;5058501;28;20404;-87
2020/12/30 08:09:39;;;;;;;0.00;0.00;;;1.90;99.90;;;;;;5038928;28;20048;-86
2020/12/30 08:12:13;;;;;;;4.28;2.92;;;2.00;99.90;;;;;;5057601;28;20060;-86
2020/12/30 08:14:40;;;;;;;0.00;0.00;;;2.20;99.90;;;;;;5037596;28;20036;-86
2020/12/30 08:17:07;;;;;;;0.00;0.00;;;2.20;99.90;;;;;;5038831;28;20066;-86
2020/12/30 08:19:47;;;;;;;0.00;0.00;;;2.20;99.90;;;;;;5042236;28;20043;-86
2020/12/30 08:22:16;;;;;;;0.00;0.00;;;2.20;99.90;;;;;;5038653;28;20036;-87
2020/12/30 08:24:45;;;;;;;0.00;0.00;;;2.30;99.90;;;;;;5044970;28;20059;-86
2020/12/30 08:27:14;;;;;;;0.00;0.00;;;2.40;99.90;;;;;;5053464;28;20037;-86
2020/12/30 08:29:41;;;;;;;0.00;0.00;;;2.40;99.90;;;;;;5048188;28;20077;-86
2020/12/30 08:32:13;;;;;;;0.00;0.00;;;2.50;99.90;;;;;;5048244;28;20493;-87
2020/12/30 08:34:56;;;;;;;0.00;0.00;;;2.50;99.90;;;;;;5051203;28;20037;-86
2020/12/30 08:37:25;;;;;;;0.00;0.00;;;2.60;99.90;;;;;;5033656;28;20040;-86
2020/12/30 08:39:56;;;;;;;0.00;0.00;;;2.50;99.90;;;;;;5056079;28;20140;-86
2020/12/30 08:42:40;;;;;;;0.00;0.00;;;2.70;99.90;;;;;;5040487;28;20041;-86
2020/12/30 08:45:08;;;;;;;3.55;2.17;;;2.70;99.90;;;;;;5029077;28;20035;-86
2020/12/30 08:47:38;;;;;;;0.00;0.00;;;2.80;99.90;;;;;;5048826;28;20028;-86
2020/12/30 08:50:08;;;;;;;0.00;0.00;;;2.70;99.90;;;;;;5051903;28;20068;-86
2020/12/30 08:52:42;;;;;;;0.00;0.00;;;2.70;99.90;;;;;;5033380;28;20077;-86
2020/12/30 08:55:09;;;;;;;0.00;0.00;;;2.80;99.90;;;;;;5040858;28;20048;-87
2020/12/30 08:57:36;;;;;;;0.00;0.00;;;2.80;99.90;;;;;;5037850;28;20056;-86
2020/12/30 09:00:22;;;;;;;0.00;0.00;;;2.80;99.90;;;;;;5054690;28;20044;-86
2020/12/30 09:02:50;;;;;;;0.00;0.00;;;2.80;99.90;;;;;;5033854;28;20132;-87
2020/12/30 09:05:32;;;;;;;0.00;0.00;;;2.90;99.90;;;;;;5045585;28;20099;-86
2020/12/30 09:08:11;;;;;;;0.65;0.60;;;2.90;99.90;;;;;;5066976;28;20039;-87
2020/12/30 09:10:47;;;;;;;0.00;0.00;;;3.00;99.90;;;;;;5042252;28;20048;-86
2020/12/30 09:13:29;;;;;;;0.00;0.00;;;2.90;99.90;;;;;;5033529;28;20046;-87
2020/12/30 09:16:02;;;;;;;0.65;0.22;;;3.00;99.90;;;;;;5044164;28;20048;-86
2020/12/30 09:18:28;;;;;;;0.52;0.52;;;3.00;99.90;;;;;;5048120;28;20060;-87
2020/12/30 09:20:54;;;;;;;2.53;0.55;;;3.10;99.90;;;;;;5034832;28;20053;-86
2020/12/30 09:23:24;;;;;;;0.00;0.00;;;3.10;99.90;;;;;;5045249;28;20037;-86
2020/12/30 09:25:51;;;;;;;1.25;0.85;;;3.10;99.90;;;;;;5045589;28;20037;-86
2020/12/30 09:28:18;;;;;;;0.00;0.00;;;3.20;99.90;;;;;;5049825;28;20059;-86
2020/12/30 09:30:46;;;;;;;0.00;0.00;;;3.20;99.90;;;;;;5049798;28;20029;-86
2020/12/30 09:33:14;;;;;;;0.00;0.00;;;3.20;99.90;;;;;;5026520;28;20061;-87
2020/12/30 09:35:40;;;;;;;0.00;0.00;;;3.20;99.90;;;;;;5024356;28;20043;-87
2020/12/30 09:38:06;;;;;;;0.00;0.00;;;3.20;99.90;;;;;;5047090;28;20041;-86
2020/12/30 09:40:40;;;;;;;0.00;0.00;;;3.20;99.90;;;;;;5036534;28;20043;-88
2020/12/30 09:43:13;;;;;;;3.28;3.03;;;3.20;99.90;;;;;;5031351;28;20041;-87
2020/12/30 09:45:39;;;;;;;7.22;6.70;;;3.30;99.90;;;;;;5011637;28;20049;-87
2020/12/30 09:48:10;;;;;;;0.00;0.00;;;3.40;99.90;;;;;;5026783;28;20037;-85
2020/12/30 09:50:37;;;;;;;0.20;0.20;;;3.40;99.90;;;;;;5026769;28;20122;-86
2020/12/30 09:53:02;;;;;;;0.00;0.00;;;3.50;99.90;;;;;;5047991;28;20029;-86
2020/12/30 09:55:28;;;;;;;0.00;0.00;;;3.60;99.90;;;;;;5030862;28;20041;-86
2020/12/30 09:57:54;;;;;;;0.10;0.10;;;3.70;99.90;;;;;;5037861;28;20068;-85
2020/12/30 10:00:19;;;;;;;0.10;0.10;;;3.70;99.90;;;;;;5030973;28;20033;-86
2020/12/30 10:02:45;;;;;;;0.00;0.00;;;3.70;99.90;;;;;;5031379;28;20132;-86
2020/12/30 10:05:11;;;;;;;0.00;0.00;;;3.70;99.90;;;;;;5047181;28;20032;-87
2020/12/30 10:07:36;;;;;;;0.00;0.00;;;3.70;99.90;;;;;;5047084;28;20037;-87
2020/12/30 10:10:03;;;;;;;0.00;0.00;;;3.70;99.90;;;;;;5030552;28;20044;-86
2020/12/30 10:12:28;;;;;;;1.58;1.48;;;3.80;99.90;;;;;;5031464;28;20104;-86
2020/12/30 10:14:54;;;;;;;0.30;0.30;;;3.80;99.90;;;;;;5032543;28;20060;-86
2020/12/30 10:17:19;;;;;;;0.00;0.00;;;3.90;99.90;;;;;;5031786;28;20037;-85
2020/12/30 10:19:45;;;;;;;0.75;0.75;;;3.90;99.90;;;;;;5030670;28;20037;-86
2020/12/30 10:22:12;;;;;;;0.00;0.00;;;3.90;99.90;;;;;;5049198;28;20040;-86
2020/12/30 10:24:44;;;;;;;1.38;0.63;;;4.00;99.90;;;;;;5036160;28;20346;-86
2020/12/30 10:27:13;;;;;;;0.00;0.00;;;3.90;99.90;;;;;;5032959;28;20024;-87
2020/12/30 10:29:38;;;;;;;1.65;0.13;;;3.90;99.90;;;;;;5040100;28;20052;-84
2020/12/30 10:32:04;;;;;;;0.00;0.00;;;3.90;99.90;;;;;;5037677;28;20075;-87
2020/12/30 10:34:30;;;;;;;0.10;0.10;;;4.00;99.90;;;;;;5030362;28;20056;-87
2020/12/30 10:36:55;;;;;;;0.32;0.32;;;4.00;99.90;;;;;;5036601;28;20048;-88
2020/12/30 10:39:21;;;;;;;0.00;0.00;;;4.00;99.90;;;;;;5032264;28;20105;-88
2020/12/30 10:41:47;;;;;;;0.70;0.15;;;4.00;99.90;;;;;;5034671;28;20036;-87
2020/12/30 10:44:12;;;;;;;0.00;0.00;;;4.10;99.90;;;;;;5052297;28;20033;-88
2020/12/30 10:46:39;;;;;;;0.10;0.10;;;4.10;99.90;;;;;;5041910;28;20044;-85
2020/12/30 10:49:05;;;;;;;0.32;0.32;;;4.10;99.90;;;;;;5028884;28;20045;-87
2020/12/30 10:51:31;;;;;;;0.45;0.35;;;4.20;99.90;;;;;;5028256;28;20035;-88
2020/12/30 10:54:17;;;;;;;0.00;0.00;;;4.20;99.90;;;;;;5025629;28;20042;-87
2020/12/30 10:56:50;;;;;;;0.00;0.00;;;4.20;99.90;;;;;;5004917;28;20049;-88
2020/12/30 10:59:17;;;;;;;1.02;0.30;;;4.30;99.90;;;;;;4998489;28;20049;-88
2020/12/30 11:01:43;;;;;;;0.00;0.00;;;4.30;99.90;;;;;;5012632;28;20033;-86
2020/12/30 11:04:09;;;;;;;0.00;0.00;;;4.30;99.90;;;;;;4993514;28;20617;-88
2020/12/30 11:06:34;;;;;;;0.00;0.00;;;4.30;99.90;;;;;;5010749;28;20026;-88
2020/12/30 11:09:00;;;;;;;4.28;0.57;;;4.30;99.90;;;;;;5013542;28;20057;-88
2020/12/30 11:11:26;;;;;;;0.00;0.00;;;4.30;99.90;;;;;;5003867;28;20144;-88
2020/12/30 11:13:51;;;;;;;0.10;0.10;;;4.30;99.90;;;;;;4991073;28;20034;-88
2020/12/30 11:16:17;;;;;;;0.00;0.00;;;4.40;99.90;;;;;;4993119;28;20101;-88
2020/12/30 11:18:43;;;;;;;0.00;0.00;;;4.40;99.90;;;;;;4986859;28;20101;-87
2020/12/30 11:21:12;;;;;;;0.00;0.00;;;4.40;99.90;;;;;;5007813;28;20042;-88
2020/12/30 11:23:37;;;;;;;0.30;0.30;;;4.40;99.90;;;;;;4992415;28;20038;-87
2020/12/30 11:26:03;;;;;;;0.00;0.00;;;4.40;99.90;;;;;;5007511;28;20136;-87
2020/12/30 11:28:29;;;;;;;0.10;0.10;;;4.30;99.90;;;;;;4993890;28;20046;-87
2020/12/30 11:30:54;;;;;;;0.52;0.52;;;4.40;99.90;;;;;;4988725;28;20105;-87
2020/12/30 11:33:20;;;;;;;0.00;0.00;;;4.40;99.90;;;;;;5017057;28;20190;-88
2020/12/30 11:35:46;;;;;;;0.10;0.00;;;4.40;99.90;;;;;;5026152;28;20125;-89
2020/12/30 11:38:11;;;;;;;0.00;0.00;;;4.50;99.90;;;;;;5034016;28;20084;-88
2020/12/30 11:40:40;;;;;;;0.00;0.00;;;4.40;99.90;;;;;;5034088;28;20048;-88
2020/12/30 11:43:06;;;;;;;0.00;0.00;;;4.40;99.90;;;;;;5045223;28;20037;-88
2020/12/30 11:45:32;;;;;;;0.32;0.32;;;4.50;99.90;;;;;;5028818;28;20044;-89
2020/12/30 11:51:46;;;;;;;0.00;0.00;;;4.60;99.90;;;;;;5297675;22;21087;-87
2020/12/30 11:54:14;;;;;;;0.00;0.00;;;4.60;99.90;;;;;;5064162;28;20045;-86
2020/12/30 11:56:40;;;;;;;0.00;0.00;;;4.50;99.90;;;;;;5061071;28;20081;-87
2020/12/30 11:59:06;;;;;;;0.10;0.10;;;4.60;99.90;;;;;;5048979;28;20489;-88
2020/12/30 12:01:33;;;;;;;0.00;0.00;;;4.60;99.90;;;;;;5048711;28;20081;-87
2020/12/30 12:03:59;;;;;;;0.00;0.00;;;4.60;99.90;;;;;;5048794;28;20167;-88
2020/12/30 12:06:26;;;;;;;0.00;0.00;;;4.60;99.90;;;;;;5049851;28;20048;-88
2020/12/30 12:08:51;;;;;;;0.00;0.00;;;4.60;99.90;;;;;;5048521;28;20558;-87
2020/12/30 12:11:17;;;;;;;1.23;1.15;;;4.60;99.90;;;;;;5052091;28;20068;-88
2020/12/30 12:13:42;;;;;;;0.00;0.00;;;4.60;99.90;;;;;;5048525;28;20124;-89
2020/12/30 12:16:11;;;;;;;0.00;0.00;;;4.70;99.90;;;;;;5048988;28;20045;-90
2020/12/30 12:18:36;;;;;;;0.00;0.00;;;4.80;99.90;;;;;;5050869;28;20048;-89
2020/12/30 12:21:03;;;;;;;0.08;0.08;;;4.90;99.90;;;;;;5052239;28;20108;-88
2020/12/30 12:23:29;;;;;;;0.00;0.00;;;5.00;99.90;;;;;;5050538;28;20062;-88
2020/12/30 12:25:54;;;;;;;0.00;0.00;;;5.10;99.90;;;;;;5046601;28;20057;-88
2020/12/30 12:28:57;;;;;;;0.00;0.00;;;5.10;99.90;;;;;;5053590;28;20045;-87
2020/12/30 12:31:23;;;;;;;0.00;0.00;;;5.10;99.90;;;;;;5061570;28;20037;-88
2020/12/30 12:33:49;;;;;;;1.20;0.32;;;5.00;99.90;;;;;;5047546;28;20049;-86
2020/12/30 12:36:15;;;;;;;0.00;0.00;;;4.90;99.90;;;;;;5048495;28;20135;-88
2020/12/30 12:38:42;;;;;;;0.00;0.00;;;4.90;99.90;;;;;;5054300;28;20419;-88
2020/12/30 12:41:08;;;;;;;0.00;0.00;;;4.90;99.90;;;;;;5065054;28;20037;-88
2020/12/30 12:43:34;;;;;;;0.00;0.00;;;5.00;99.90;;;;;;5059622;28;20060;-88
2020/12/30 12:45:59;;;;;;;0.00;0.00;;;5.00;99.90;;;;;;5039915;28;20033;-88
2020/12/30 12:48:25;;;;;;;0.00;0.00;;;5.10;99.90;;;;;;5055136;28;20044;-88
2020/12/30 12:50:51;;;;;;;0.00;0.00;;;5.20;99.90;;;;;;5065073;28;20041;-88
2020/12/30 12:53:19;;;;;;;0.75;0.10;;;5.10;99.90;;;;;;5047822;28;20053;-87
2020/12/30 12:55:45;;;;;;;0.00;0.00;;;5.20;99.90;;;;;;5054658;28;20046;-88
2020/12/30 12:58:11;;;;;;;0.20;0.10;;;5.20;99.90;;;;;;5055408;28;20073;-84
2020/12/30 13:00:36;;;;;;;0.03;0.03;;;5.10;99.90;;;;;;5062853;28;20036;-87
2020/12/30 13:03:02;;;;;;;0.03;0.03;;;5.10;99.90;;;;;;5057592;28;20037;-88
2020/12/30 13:05:27;;;;;;;0.00;0.00;;;5.20;99.90;;;;;;5064429;28;20095;-88
2020/12/30 13:07:53;;;;;;;0.00;0.00;;;5.20;99.90;;;;;;5048805;28;20041;-89
2020/12/30 13:10:18;;;;;;;0.00;0.00;;;5.20;99.90;;;;;;5072526;28;20055;-88
2020/12/30 13:12:47;;;;;;;0.00;0.00;;;5.20;99.90;;;;;;5067361;28;20040;-89